Logo AVAMET
Benvolgut visitant, si us plau, ingressa Recuperar contrasenya
AVAMET paisatges

Oriola R. de Bonanza

Dades diàries. Acumulats / Últims 30 dies disponibles

Data Temperatura (°C) Humitat rel. (%) Pressió rel. (hPa) Vent (km/h) Precipitació
Mínima Mitjana Màxima Amplitud
tèrmica
Mínima Mitjana Màxima Mínima Mitjana Màxima Predom. Mitjana Ràfega
màxima
Total
(mm)
Índex-n
Mínima Mitjana Màxima Mínima Mitjana Màxima n
0 a 1
P0 max
mm 5'
Dades mensuals acumulades fins l'últim dia disponible
08/2020 22,7 24,4 25,3 28,4 31,6 33,3 38,1 15,4 44 73 90 1.011 1.014 1.018   4,7 33,8 0,0
Dades anuals acumulades fins l'últim dia disponible
2020 2,3 14,4 25,3 19,5 10,5 24,9 39,0 36,7 20 69 97 1.002 1.018 1.036   4,5 70,8 328,2
Últims 30 dies disponibles
06-08-2020 23,9     27,5     31,6 7,7 45 70 86 1.015 1.016 1.018 SE 4,7 25,7 0,0
05-08-2020 22,7     27,2     31,9 9,2 57 74 90 1.012 1.014 1.015 SE 4,3 29,0 0,0
04-08-2020 25,3     27,8     31,8 6,5 61 76 87 1.013 1.014 1.015 ESE 6,1 30,6 0,0
03-08-2020 25,2     28,0     32,8 7,6 60 78 90 1.011 1.012 1.014 ESE 5,3 33,8 0,0
02-08-2020 24,9     29,0     33,8 8,9 59 74 89 1.012 1.013 1.015 SE 5,4 32,2 0,0
01-08-2020 24,5     30,8     38,1 13,6 44 67 86 1.012 1.014 1.016 SSE 2,2 24,1 0,0
31-07-2020 23,4     29,8     36,6 13,2 39 63 79 1.014 1.015 1.016 SSE 3,7 25,7 0,0
30-07-2020 23,8     29,0     34,5 10,7 44 67 88 1.013 1.015 1.016 SSE 5,3 30,6 0,0
29-07-2020 23,3     28,8     34,9 11,6 42 70 92 1.013 1.014 1.016 ESE 5,3 30,6 0,0
28-07-2020 22,1     27,9     33,3 11,2 39 68 86 1.013 1.014 1.016 SSE 5,8 30,6 0,0
27-07-2020 22,1     28,2     34,1 12,0 33 64 90 1.015 1.016 1.017 SE 3,8 27,4 0,0
26-07-2020 21,8     27,3     32,4 10,6 53 74 91 1.014 1.015 1.016 SE 5,5 29,0 0,0
25-07-2020 23,3     27,7     32,5 9,2 42 68 90 1.013 1.014 1.016 ESE 4,6 25,7 0,0
24-07-2020 22,3     27,6     33,1 10,8 50 70 89 1.013 1.014 1.015 SE 4,0 27,4 0,0
23-07-2020 21,5     28,0     34,1 12,6 32 57 78 1.014 1.015 1.017 SSE 3,5 25,7 0,0
22-07-2020 22,2     27,4     31,2 9,0 48 63 84 1.015 1.017 1.019 SSE 7,9 37,0 0,0
21-07-2020 21,2     26,7     31,1 9,9 42 70 90 1.016 1.017 1.019 SE 6,9 33,8 0,0
20-07-2020 22,8     26,9     31,5 8,7 47 70 87 1.015 1.016 1.018 SE 5,1 29,0 0,0
19-07-2020 21,3     26,7     32,7 11,4 44 70 89 1.014 1.016 1.017 SSE 5,2 37,0 0,0
18-07-2020 21,4     25,7     30,0 8,6 54 73 90 1.014 1.016 1.017 SE 4,7 27,4 0,0
17-07-2020 20,6     25,4     29,9 9,3 54 74 91 1.014 1.016 1.018 ESE 5,4 27,4 0,0
16-07-2020 20,2     25,4     29,9 9,7 51 70 90 1.017 1.018 1.019 SE 5,8 32,2 0,0
15-07-2020 21,1     25,7     30,4 9,3 46 71 89 1.015 1.016 1.018 SE 5,2 29,0 0,0
14-07-2020 22,3     25,4     29,6 7,3 57 76 87 1.014 1.016 1.018 SSE 2,7 20,9 0,8
13-07-2020 21,1     26,6     31,6 10,5 48 70 91 1.016 1.017 1.019 SSE 6,0 35,4 0,0
12-07-2020 24,4     26,5     30,5 6,1 54 73 86 1.016 1.018 1.020 SSE 7,1 37,0 0,4
11-07-2020 21,6     27,1     32,4 10,8 43 69 92 1.014 1.016 1.018 SE 6,6 37,0 0,0
10-07-2020 20,4     26,8     32,4 12,0 39 66 85 1.013 1.014 1.015 SE 5,4 30,6 0,0
09-07-2020 22,9     27,5     31,3 8,4 48 59 77 1.014 1.015 1.017 SE 9,0 45,1 0,0
08-07-2020 22,6     26,6     30,7 8,1 47 71 89 1.015 1.016 1.017 SE 6,7 32,2 0,0
Últims 13 mesos disponibles
07/2020 19,4 21,8 24,4 27,1 29,6 32,4 39,0 19,6 57 69 77 1.011 1.016 1.021 SE 5,2 45,1 1,2
06/2020 15,1 18,9 22,7 24,5 26,2 30,2 35,9 20,8 40 64 81 1.005 1.014 1.021 SE 5,0 54,7 24,4
05/2020 12,5 16,0 18,8 21,8 20,6 27,4 32,8 20,3 52 64 83 1.006 1.017 1.026 SSE 4,6 51,5 50,4
04/2020 8,8 12,7 18,1 16,8 16,8 21,5 27,4 18,6 50 74 87 1.006 1.016 1.025 SSE 4,3 54,7 40,4
03/2020 6,7 11,0 15,2 15,4 12,1 20,3 30,0 23,3 38 67 90 1.009 1.017 1.025 S 5,4 70,8 124,8
02/2020 4,9 9,6 14,2 15,0 15,7 21,6 26,6 21,7 42 72 86 1.015 1.026 1.033 S 3,1 54,7 2,2
01/2020 2,3 6,9 12,8 11,8 10,5 16,8 22,2 19,9 62 74 88 1.013 1.023 1.030 SO 3,7 64,4 84,8
12/2019 5,7 10,2 18,4 13,9 10,7 17,9 23,0 17,3 42 72 93 1.005 1.018 1.032 SO 4,1 75,6 43,6
11/2019 5,4 11,7 20,1 16,0 14,6 19,8 28,4 23,0 44 58 92 1.000 1.012 1.019 SSO 6,4 77,2 12,8
10/2019 10,4 15,5 21,1 20,5 16,9 26,4 34,6 24,2 45 70 86 1.009 1.017 1.022 S 2,8 58,0 26,8
09/2019 15,9 20,2 23,9 24,3 22,2 29,1 34,3 18,4 46 74 86 1.010 1.017 1.022 S 4,1 69,0 503,4
08/2019 19,1 22,2 25,2 27,3 28,8 33,2 41,8 22,7 47 69 79 1.011 1.016 1.020 SE 4,6 60,0 16,2
07/2019 20,4 22,6 26,4 27,9 29,4 33,6 39,8 19,4 36 60 75 1.006 1.014 1.020 SE 5,7 52,0 0,2
Tots els anys disponibles
2019 4,1 15,0 26,4 20,0 10,7 25,5 41,8 37,7 34 65 93 997 1.017 1.033 SSE 4,7 77,2 761,8
Temperatura (°C)
Humitat relativa (%)
Velocitat del vent i ràfega màxima (km/h)
Direcció del vent (°)
Pressió (hPa)
Precipitació (mm)
Nota sobre les dades: s'avisa a l'usuari de la provisionalitat i no oficialitat d'aquestes dades
Logo AVAMET blanc
Web allotjada a Sollutia
Llicència de Creative CommonsLa web d'AVAMET i els seus continguts estan subjectes a una llicència de
Reconeixement - No Comercial - Compartir igual
Últimes estacions: Torremocha del Jiloca (Limítrofe/Soci), Orihuela - Arneva (MeteOrihuela), Enguera - Antolí (Soci), Vilamarxant - La Pedrera (Soci), Càlig (Ajuntament Soci), Quesa - Hotel La Rocha (Soci), Agres - Les Eres (Soci) - - -